createdAt,value
2019-05-05T00:02:04.881Z,99.90
2019-05-05T00:04:51.485Z,99.90
2019-05-05T00:07:21.922Z,99.90
2019-05-05T00:09:52.276Z,99.90
2019-05-05T00:12:22.421Z,99.90
2019-05-05T00:14:54.588Z,99.90
2019-05-05T00:17:24.962Z,99.90
2019-05-05T00:19:54.925Z,99.90
2019-05-05T00:22:24.538Z,99.90
2019-05-05T00:24:54.641Z,99.90
2019-05-05T00:27:25.280Z,99.90
2019-05-05T00:29:54.684Z,99.90
2019-05-05T00:32:24.504Z,99.90
2019-05-05T00:34:55.166Z,99.90
2019-05-05T00:37:25.479Z,99.90
2019-05-05T00:39:54.339Z,99.90
2019-05-05T00:42:24.702Z,99.90
2019-05-05T00:44:54.892Z,99.90
2019-05-05T00:47:30.938Z,99.90
2019-05-05T00:49:59.840Z,99.90
2019-05-05T00:52:28.306Z,99.90
2019-05-05T00:54:56.814Z,99.90
2019-05-05T00:57:25.247Z,99.90
2019-05-05T00:59:54.343Z,99.90
2019-05-05T01:02:25.107Z,99.90
2019-05-05T01:04:57.985Z,99.90
2019-05-05T01:07:26.533Z,99.90
2019-05-05T01:09:54.978Z,99.90
2019-05-05T01:12:24.373Z,99.90
2019-05-05T01:14:55.097Z,99.90
2019-05-05T01:17:25.126Z,99.90
2019-05-05T01:20:01.161Z,99.90
2019-05-05T01:22:24.970Z,99.90
2019-05-05T01:24:55.410Z,99.90
2019-05-05T01:27:25.345Z,99.90
2019-05-05T01:29:54.589Z,99.90
2019-05-05T01:32:27.827Z,99.90
2019-05-05T01:34:56.259Z,99.90
2019-05-05T01:37:26.426Z,99.90
2019-05-05T01:40:02.338Z,99.90
2019-05-05T01:42:30.882Z,99.90
2019-05-05T01:44:59.312Z,99.90
2019-05-05T01:47:27.771Z,99.90
2019-05-05T01:49:56.203Z,99.90
2019-05-05T01:52:25.453Z,99.90
2019-05-05T01:54:54.817Z,99.90
2019-05-05T01:57:25.195Z,99.90
2019-05-05T01:59:55.239Z,99.90
2019-05-05T02:02:25.115Z,99.90
2019-05-05T02:04:55.389Z,99.90
2019-05-05T02:07:25.010Z,99.90
2019-05-05T02:09:55.442Z,99.90
2019-05-05T02:12:24.655Z,99.90
2019-05-05T02:14:55.126Z,99.90
2019-05-05T02:17:24.685Z,99.90
2019-05-05T02:19:54.960Z,99.90
2019-05-05T02:22:25.235Z,99.90
2019-05-05T02:24:55.154Z,99.90
2019-05-05T02:27:25.170Z,99.90
2019-05-05T02:30:12.311Z,99.90
2019-05-05T02:32:45.022Z,99.90
2019-05-05T02:35:16.268Z,99.90
2019-05-05T02:37:45.664Z,99.90
2019-05-05T02:40:16.111Z,99.90
2019-05-05T02:42:45.924Z,99.90
2019-05-05T02:45:25.102Z,99.90
2019-05-05T02:48:05.930Z,99.90
2019-05-05T02:51:00.754Z,99.90
2019-05-05T02:53:29.584Z,99.90
2019-05-05T02:56:04.097Z,99.90
2019-05-05T02:58:34.761Z,99.90
2019-05-05T03:01:05.870Z,99.90
2019-05-05T03:03:37.415Z,99.90
2019-05-05T03:06:05.926Z,99.90
2019-05-05T03:08:36.625Z,99.90
2019-05-05T03:11:05.795Z,99.90
2019-05-05T03:13:36.592Z,99.90
2019-05-05T03:16:17.277Z,99.90
2019-05-05T03:18:46.670Z,99.90
2019-05-05T03:21:16.159Z,99.90
2019-05-05T03:23:44.721Z,99.90
2019-05-05T03:26:14.231Z,99.90
2019-05-05T03:28:47.606Z,99.90
2019-05-05T03:31:16.413Z,99.90
2019-05-05T03:33:46.144Z,99.90
2019-05-05T03:36:15.334Z,99.90
2019-05-05T03:38:44.544Z,99.90
2019-05-05T03:41:15.445Z,99.90
2019-05-05T03:44:04.789Z,99.90
2019-05-05T03:46:35.096Z,99.90
2019-05-05T03:49:04.801Z,99.90
2019-05-05T03:51:34.625Z,99.90
2019-05-05T03:54:04.453Z,99.90
2019-05-05T03:56:34.687Z,99.90
2019-05-05T03:59:04.854Z,99.90
2019-05-05T04:01:40.373Z,99.90
2019-05-05T04:04:25.598Z,99.90
2019-05-05T04:06:55.889Z,99.90
2019-05-05T04:09:24.657Z,99.90
2019-05-05T04:11:53.925Z,99.90
2019-05-05T04:14:24.757Z,99.90
2019-05-05T04:16:54.754Z,99.90
2019-05-05T04:19:24.926Z,99.90
2019-05-05T04:21:53.697Z,99.90
2019-05-05T04:24:23.822Z,99.90
2019-05-05T04:26:54.471Z,99.90
2019-05-05T04:29:24.369Z,99.90
2019-05-05T04:31:54.043Z,99.90
2019-05-05T04:34:24.076Z,99.90
2019-05-05T04:36:54.605Z,99.90
2019-05-05T04:39:23.682Z,99.90
2019-05-05T04:41:54.360Z,99.90
2019-05-05T04:44:23.684Z,99.90
2019-05-05T04:46:54.630Z,99.90
2019-05-05T04:49:24.804Z,99.90
2019-05-05T04:51:58.032Z,99.90
2019-05-05T04:54:34.133Z,99.90
2019-05-05T04:57:04.466Z,99.90
2019-05-05T04:59:33.991Z,99.90
2019-05-05T05:02:04.209Z,99.90
2019-05-05T05:04:34.299Z,99.90
2019-05-05T05:07:04.744Z,99.90
2019-05-05T05:09:34.145Z,99.90
2019-05-05T05:12:04.004Z,99.90
2019-05-05T05:14:33.709Z,99.90
2019-05-05T05:17:04.103Z,99.90
2019-05-05T05:19:33.526Z,99.90
2019-05-05T05:22:04.717Z,99.90
2019-05-05T05:24:34.254Z,99.90
2019-05-05T05:27:04.848Z,99.90
2019-05-05T05:29:34.553Z,99.90
2019-05-05T05:32:04.167Z,99.90
2019-05-05T05:34:34.419Z,99.90
2019-05-05T05:37:04.226Z,99.90
2019-05-05T05:39:40.660Z,99.90
2019-05-05T05:42:09.103Z,99.90
2019-05-05T05:44:39.177Z,99.90
2019-05-05T05:47:15.339Z,99.90
2019-05-05T05:49:45.445Z,99.90
2019-05-05T05:52:19.062Z,99.90
2019-05-05T05:54:44.272Z,99.90
2019-05-05T05:57:13.623Z,99.90
2019-05-05T05:59:44.343Z,99.90
2019-05-05T06:02:15.244Z,99.90
2019-05-05T06:04:44.449Z,99.90
2019-05-05T06:07:14.312Z,99.90
2019-05-05T06:09:43.714Z,99.90
2019-05-05T06:12:14.164Z,99.90
2019-05-05T06:14:44.698Z,99.90
2019-05-05T06:17:13.543Z,99.90
2019-05-05T06:19:44.417Z,99.90
2019-05-05T06:22:15.211Z,99.90
2019-05-05T06:24:43.897Z,99.90
2019-05-05T06:27:14.267Z,99.90
2019-05-05T06:29:43.817Z,99.90
2019-05-05T06:32:14.402Z,99.90
2019-05-05T06:34:44.301Z,99.90
2019-05-05T06:37:14.523Z,99.90
2019-05-05T06:39:44.015Z,99.90
2019-05-05T06:42:23.709Z,99.90
2019-05-05T06:44:53.805Z,99.90
2019-05-05T06:47:23.686Z,99.90
2019-05-05T06:49:54.063Z,99.90
2019-05-05T06:52:22.381Z,99.90
2019-05-05T06:54:50.843Z,99.70
2019-05-05T06:57:19.302Z,99.90
2019-05-05T06:59:47.738Z,99.70
2019-05-05T07:02:16.203Z,99.90
2019-05-05T07:04:44.810Z,99.90
2019-05-05T07:07:14.598Z,99.90
2019-05-05T07:09:44.269Z,99.90
2019-05-05T07:12:13.804Z,99.90
2019-05-05T07:14:44.366Z,99.90
2019-05-05T07:17:14.034Z,99.90
2019-05-05T07:19:45.135Z,99.90
2019-05-05T07:22:14.444Z,99.90
2019-05-05T07:24:43.919Z,99.90
2019-05-05T07:27:13.847Z,99.90
2019-05-05T07:29:43.714Z,99.90
2019-05-05T07:32:14.244Z,99.90
2019-05-05T07:34:46.941Z,99.90
2019-05-05T07:37:15.378Z,99.90
2019-05-05T07:39:44.661Z,99.90
2019-05-05T07:42:13.782Z,99.90
2019-05-05T07:44:43.961Z,99.90
2019-05-05T07:47:14.598Z,99.90
2019-05-05T07:49:44.145Z,99.90
2019-05-05T07:52:14.981Z,99.90
2019-05-05T07:54:43.636Z,99.90
2019-05-05T07:57:14.477Z,99.90
2019-05-05T07:59:44.535Z,99.90
2019-05-05T08:02:14.521Z,99.90
2019-05-05T08:04:44.336Z,99.90
2019-05-05T08:07:14.734Z,99.90
2019-05-05T08:09:44.411Z,99.90
2019-05-05T08:12:13.733Z,99.90
2019-05-05T08:14:44.350Z,99.90
2019-05-05T08:17:30.778Z,99.90
2019-05-05T08:20:09.790Z,99.90
2019-05-05T08:22:38.461Z,99.90
2019-05-05T08:25:11.070Z,99.90
2019-05-05T08:27:50.138Z,99.70
2019-05-05T08:30:35.609Z,99.80
2019-05-05T08:33:04.639Z,99.80
2019-05-05T08:35:34.414Z,99.90
2019-05-05T08:38:04.598Z,99.20
2019-05-05T08:40:34.597Z,98.90
2019-05-05T08:43:04.536Z,99.40
2019-05-05T08:45:34.916Z,98.30
2019-05-05T08:48:04.890Z,97.20
2019-05-05T08:50:34.851Z,97.40
2019-05-05T08:53:04.878Z,96.10
2019-05-05T08:55:34.142Z,96.80
2019-05-05T08:58:04.581Z,96.10
2019-05-05T09:00:33.779Z,96.00
2019-05-05T09:03:03.788Z,95.20
2019-05-05T09:05:34.330Z,93.80
2019-05-05T09:08:04.550Z,93.90
2019-05-05T09:10:34.276Z,92.70
2019-05-05T09:13:03.883Z,92.10
2019-05-05T09:15:33.653Z,93.20
2019-05-05T09:18:04.779Z,94.20
2019-05-05T09:20:34.606Z,94.40
2019-05-05T09:23:04.159Z,95.20
2019-05-05T09:25:40.337Z,94.70
2019-05-05T09:28:28.538Z,94.80
2019-05-05T09:30:56.975Z,95.50
2019-05-05T09:33:25.397Z,94.80
2019-05-05T09:35:54.239Z,94.40
2019-05-05T09:38:23.887Z,93.90
2019-05-05T09:40:54.383Z,92.70
2019-05-05T09:43:24.021Z,93.20
2019-05-05T09:45:54.015Z,93.10
2019-05-05T09:48:25.095Z,92.90
2019-05-05T09:50:54.068Z,92.70
2019-05-05T09:53:23.777Z,92.30
2019-05-05T09:55:54.739Z,91.30
2019-05-05T09:58:24.193Z,92.60
2019-05-05T10:00:54.595Z,89.80
2019-05-05T10:03:23.077Z,88.90
2019-05-05T10:05:51.542Z,87.40
2019-05-05T10:08:20.002Z,89.50
2019-05-05T10:10:48.549Z,88.50
2019-05-05T10:13:16.995Z,83.60
2019-05-05T10:15:45.527Z,84.90
2019-05-05T10:18:14.248Z,83.30
2019-05-05T10:20:42.926Z,83.00
2019-05-05T10:23:11.417Z,83.40
2019-05-05T10:25:41.521Z,90.00
2019-05-05T10:28:10.031Z,93.20
2019-05-05T10:30:39.274Z,95.20
2019-05-05T10:33:07.724Z,97.10
2019-05-05T10:35:36.266Z,96.60
2019-05-05T10:38:04.869Z,96.80
2019-05-05T10:40:34.965Z,96.00
2019-05-05T10:43:04.517Z,94.60
2019-05-05T10:45:33.257Z,93.20
2019-05-05T10:48:03.875Z,94.00
2019-05-05T10:50:34.106Z,93.10
2019-05-05T10:53:04.282Z,91.80
2019-05-05T10:55:34.603Z,90.20
2019-05-05T10:58:02.808Z,89.60
2019-05-05T11:00:40.233Z,88.90
2019-05-05T11:03:09.115Z,92.50
2019-05-05T11:05:37.833Z,91.00
2019-05-05T11:08:06.682Z,90.50
2019-05-05T11:10:35.824Z,89.20
2019-05-05T11:13:05.482Z,88.60
2019-05-05T11:15:34.172Z,88.60
2019-05-05T11:18:04.005Z,89.60
2019-05-05T11:20:34.031Z,89.70
2019-05-05T11:23:04.714Z,91.00
2019-05-05T11:25:33.753Z,89.70
2019-05-05T11:28:04.009Z,92.30
2019-05-05T11:30:35.782Z,93.60
2019-05-05T11:33:11.854Z,95.90
2019-05-05T11:35:54.099Z,94.20
2019-05-05T11:38:24.564Z,94.90
2019-05-05T11:40:54.657Z,95.10
2019-05-05T11:43:24.629Z,94.40
2019-05-05T11:45:54.429Z,94.30
2019-05-05T11:48:24.010Z,94.40
2019-05-05T11:50:54.040Z,93.80
2019-05-05T11:53:24.913Z,95.60
2019-05-05T11:55:54.983Z,95.10
2019-05-05T11:58:24.788Z,94.00
2019-05-05T12:00:54.516Z,94.10
2019-05-05T12:03:23.687Z,93.30
2019-05-05T12:05:52.318Z,93.40
2019-05-05T12:08:20.775Z,94.00
2019-05-05T12:10:54.287Z,92.80
2019-05-05T12:13:22.941Z,93.60
2019-05-05T12:15:53.836Z,94.20
2019-05-05T12:18:23.743Z,93.90
2019-05-05T12:20:54.222Z,92.50
2019-05-05T12:23:22.449Z,92.50
2019-05-05T12:25:56.621Z,92.00
2019-05-05T12:28:44.001Z,91.10
2019-05-05T12:31:20.302Z,90.60
2019-05-05T12:33:48.787Z,90.70
2019-05-05T12:36:17.360Z,89.40
2019-05-05T12:38:45.793Z,88.50
2019-05-05T12:41:14.752Z,87.90
2019-05-05T12:43:44.155Z,89.40
2019-05-05T12:46:24.284Z,87.40
2019-05-05T12:48:54.513Z,85.50
2019-05-05T12:51:23.641Z,85.00
2019-05-05T12:53:53.952Z,83.70
2019-05-05T12:56:23.796Z,83.00
2019-05-05T12:58:54.321Z,83.10
2019-05-05T13:01:26.993Z,83.10
2019-05-05T13:03:55.435Z,83.90
2019-05-05T13:06:24.142Z,85.90
2019-05-05T13:08:52.750Z,85.10
2019-05-05T13:11:23.607Z,84.50
2019-05-05T13:13:51.826Z,84.70
2019-05-05T13:16:22.474Z,84.60
2019-05-05T13:18:50.585Z,84.40
2019-05-05T13:21:37.151Z,86.60
2019-05-05T13:24:07.312Z,85.80
2019-05-05T13:26:43.239Z,86.40
2019-05-05T13:29:13.796Z,84.30
2019-05-05T13:31:44.061Z,85.00
2019-05-05T13:34:13.680Z,85.70
2019-05-05T13:36:44.126Z,85.60
2019-05-05T13:39:14.451Z,85.50
2019-05-05T13:41:44.906Z,83.70
2019-05-05T13:44:15.230Z,84.80
2019-05-05T13:46:44.301Z,86.50
2019-05-05T13:49:17.202Z,88.50
2019-05-05T13:51:45.665Z,88.40
2019-05-05T13:54:14.127Z,89.30
2019-05-05T13:56:44.194Z,85.90
2019-05-05T13:59:14.148Z,84.10
2019-05-05T14:01:44.797Z,81.80
2019-05-05T14:04:13.114Z,82.20
2019-05-05T14:06:41.635Z,82.50
2019-05-05T14:09:10.673Z,79.30
2019-05-05T14:11:39.119Z,78.30
2019-05-05T14:14:07.649Z,79.60
2019-05-05T14:16:36.194Z,80.60
2019-05-05T14:19:04.706Z,80.40
2019-05-05T14:21:33.962Z,79.70
2019-05-05T14:24:04.762Z,79.90
2019-05-05T14:26:35.288Z,77.00
2019-05-05T14:29:04.334Z,77.20
2019-05-05T14:31:34.650Z,77.40
2019-05-05T14:34:04.749Z,77.50
2019-05-05T14:36:53.359Z,78.00
2019-05-05T14:39:23.806Z,76.90
2019-05-05T14:41:53.831Z,76.10
2019-05-05T14:44:24.021Z,74.70
2019-05-05T14:46:52.687Z,74.50
2019-05-05T14:49:21.117Z,73.80
2019-05-05T14:51:49.581Z,73.60
2019-05-05T14:54:18.023Z,76.50
2019-05-05T14:56:46.529Z,77.30
2019-05-05T14:59:14.970Z,74.50
2019-05-05T15:01:44.770Z,73.60
2019-05-05T15:04:15.149Z,74.30
2019-05-05T15:06:45.262Z,74.40
2019-05-05T15:09:15.332Z,76.10
2019-05-05T15:11:57.578Z,75.30
2019-05-05T15:14:26.034Z,73.10
2019-05-05T15:16:54.569Z,73.30
2019-05-05T15:19:23.739Z,72.50
2019-05-05T15:21:53.635Z,72.10
2019-05-05T15:24:24.458Z,73.80
2019-05-05T15:26:55.047Z,74.60
2019-05-05T15:29:25.239Z,73.50
2019-05-05T15:31:54.034Z,74.60
2019-05-05T15:34:24.097Z,75.60
2019-05-05T15:36:54.562Z,75.20
2019-05-05T15:39:24.551Z,76.30
2019-05-05T15:41:54.157Z,76.40
2019-05-05T15:44:24.152Z,77.00
2019-05-05T15:46:57.599Z,75.40
2019-05-05T15:49:23.487Z,74.00
2019-05-05T15:51:53.879Z,75.00
2019-05-05T15:54:23.647Z,75.70
2019-05-05T15:57:03.101Z,76.20
2019-05-05T15:59:23.911Z,75.90
2019-05-05T16:01:54.760Z,75.80
2019-05-05T16:04:23.647Z,76.30
2019-05-05T16:06:54.112Z,75.90
2019-05-05T16:09:22.715Z,74.60
2019-05-05T16:11:51.622Z,75.40
2019-05-05T16:14:20.794Z,76.30
2019-05-05T16:16:59.737Z,73.50
2019-05-05T16:19:32.809Z,73.00
2019-05-05T16:22:19.393Z,72.70
2019-05-05T16:24:51.389Z,73.30
2019-05-05T16:27:22.215Z,71.70
2019-05-05T16:29:49.822Z,71.60
2019-05-05T16:32:21.954Z,71.00
2019-05-05T16:34:48.539Z,69.50
2019-05-05T16:37:16.976Z,68.10
2019-05-05T16:39:45.438Z,69.60
2019-05-05T16:42:15.297Z,69.30
2019-05-05T16:44:43.782Z,67.60
2019-05-05T16:47:13.651Z,65.60
2019-05-05T16:49:44.375Z,65.20
2019-05-05T16:52:14.542Z,64.90
2019-05-05T16:54:45.845Z,64.80
2019-05-05T16:57:14.494Z,66.20
2019-05-05T16:59:44.232Z,66.30
2019-05-05T17:02:13.942Z,66.90
2019-05-05T17:04:43.369Z,70.90
2019-05-05T17:07:11.973Z,72.80
2019-05-05T17:09:40.433Z,73.70
2019-05-05T17:12:08.922Z,74.10
2019-05-05T17:14:56.259Z,74.60
2019-05-05T17:17:26.369Z,75.50
2019-05-05T17:19:56.510Z,76.70
2019-05-05T17:22:26.703Z,76.80
2019-05-05T17:24:55.135Z,76.60
2019-05-05T17:27:23.766Z,76.50
2019-05-05T17:29:53.626Z,75.60
2019-05-05T17:32:24.750Z,76.20
2019-05-05T17:34:54.106Z,75.70
2019-05-05T17:37:23.908Z,76.60
2019-05-05T17:39:54.586Z,76.90
2019-05-05T17:42:24.944Z,77.10
2019-05-05T17:44:55.125Z,78.10
2019-05-05T17:47:25.298Z,78.60
2019-05-05T17:50:04.717Z,78.50
2019-05-05T17:52:41.079Z,78.00
2019-05-05T17:58:05.485Z,78.60
2019-05-05T18:00:35.767Z,78.50
2019-05-05T18:03:04.567Z,78.60
2019-05-05T18:05:51.337Z,78.80
2019-05-05T18:08:37.901Z,78.70
2019-05-05T18:11:25.404Z,78.70
2019-05-05T18:13:58.545Z,78.90
2019-05-05T18:16:28.054Z,78.60
2019-05-05T18:18:56.592Z,78.90
2019-05-05T18:21:25.042Z,78.60
2019-05-05T18:23:54.591Z,77.30
2019-05-05T18:26:24.361Z,77.00
2019-05-05T18:28:54.068Z,76.50
2019-05-05T18:31:24.285Z,77.30
2019-05-05T18:33:54.298Z,77.50
2019-05-05T18:36:23.128Z,78.30
2019-05-05T18:38:53.664Z,79.10
2019-05-05T18:41:29.454Z,79.80
2019-05-05T18:43:59.546Z,80.30
2019-05-05T18:46:28.070Z,80.50
2019-05-05T18:48:56.563Z,81.10
2019-05-05T18:51:25.249Z,81.60
2019-05-05T18:53:55.052Z,81.90
2019-05-05T18:56:23.786Z,82.80
2019-05-05T18:58:54.099Z,83.30
2019-05-05T19:01:42.277Z,83.80
2019-05-05T19:04:13.694Z,84.20
2019-05-05T19:06:46.326Z,84.80
2019-05-05T19:09:16.428Z,85.30
2019-05-05T19:11:44.883Z,86.60
2019-05-05T19:14:14.301Z,86.30
2019-05-05T19:16:42.854Z,86.60
2019-05-05T19:19:11.377Z,87.10
2019-05-05T19:21:50.527Z,87.40
2019-05-05T19:24:18.954Z,87.80
2019-05-05T19:26:47.458Z,88.20
2019-05-05T19:29:15.990Z,89.00
2019-05-05T19:31:44.426Z,89.60
2019-05-05T19:34:14.536Z,90.10
2019-05-05T19:36:44.951Z,90.30
2019-05-05T19:39:13.825Z,90.60
2019-05-05T19:41:46.581Z,90.80
2019-05-05T19:44:14.557Z,90.90
2019-05-05T19:46:44.422Z,91.20
2019-05-05T19:49:17.390Z,91.50
2019-05-05T19:51:46.574Z,91.70
2019-05-05T19:54:15.802Z,91.70
2019-05-05T19:56:44.742Z,91.80
2019-05-05T19:59:13.780Z,92.00
2019-05-05T20:01:44.684Z,92.10
2019-05-05T20:04:14.628Z,92.30
2019-05-05T20:06:44.220Z,92.20
2019-05-05T20:09:14.117Z,92.30
2019-05-05T20:11:43.752Z,92.20
2019-05-05T20:14:15.032Z,92.20
2019-05-05T20:17:01.062Z,92.20
2019-05-05T20:19:34.164Z,92.20
2019-05-05T20:22:02.735Z,92.30
2019-05-05T20:24:31.170Z,92.40
2019-05-05T20:27:00.474Z,92.60
2019-05-05T20:29:28.942Z,92.60
2019-05-05T20:31:57.402Z,92.90
2019-05-05T20:34:30.438Z,93.60
2019-05-05T20:37:14.133Z,93.30
2019-05-05T20:39:44.020Z,93.40
2019-05-05T20:42:14.727Z,93.70
2019-05-05T20:44:43.723Z,93.70
2019-05-05T20:47:12.612Z,93.90
2019-05-05T20:49:41.168Z,94.00
2019-05-05T20:52:09.621Z,94.10
2019-05-05T20:54:38.144Z,94.10
2019-05-05T20:57:06.646Z,94.20
2019-05-05T20:59:35.070Z,94.40
2019-05-05T21:02:04.438Z,94.50
2019-05-05T21:04:34.471Z,94.80
2019-05-05T21:07:04.431Z,94.90
2019-05-05T21:09:34.446Z,95.10
2019-05-05T21:12:04.666Z,95.20
2019-05-05T21:14:37.216Z,95.20
2019-05-05T21:17:04.172Z,95.60
2019-05-05T21:19:34.590Z,95.60
2019-05-05T21:22:21.626Z,95.80
2019-05-05T21:24:50.534Z,95.90
2019-05-05T21:27:18.973Z,95.90
2019-05-05T21:29:47.422Z,96.10
2019-05-05T21:32:15.864Z,96.10
2019-05-05T21:34:44.543Z,95.90
2019-05-05T21:37:14.197Z,95.80
2019-05-05T21:39:42.858Z,95.90
2019-05-05T21:42:13.887Z,96.10
2019-05-05T21:44:44.003Z,96.10
2019-05-05T21:47:13.985Z,96.10
2019-05-05T21:49:41.905Z,96.10
2019-05-05T21:52:14.542Z,96.30
2019-05-05T21:54:50.650Z,96.40
2019-05-05T21:57:30.074Z,96.40
2019-05-05T21:59:59.091Z,96.50
2019-05-05T22:02:27.855Z,96.80
2019-05-05T22:04:56.322Z,97.00
2019-05-05T22:07:24.753Z,97.10
2019-05-05T22:09:54.435Z,97.30
2019-05-05T22:12:24.282Z,97.40
2019-05-05T22:14:54.951Z,97.50
2019-05-05T22:17:23.124Z,97.70
2019-05-05T22:19:55.867Z,97.90
2019-05-05T22:22:25.929Z,97.90
2019-05-05T22:24:54.405Z,98.10
2019-05-05T22:27:23.782Z,98.10
2019-05-05T22:29:55.359Z,98.10
2019-05-05T22:32:24.832Z,98.20
2019-05-05T22:34:52.808Z,98.60
2019-05-05T22:37:21.268Z,98.40
2019-05-05T22:39:49.747Z,98.40
2019-05-05T22:42:18.214Z,98.30
2019-05-05T22:44:46.651Z,98.40
2019-05-05T22:47:15.105Z,98.40
2019-05-05T22:49:44.339Z,98.50
2019-05-05T22:52:14.446Z,98.50
2019-05-05T22:54:44.405Z,98.80
2019-05-05T22:57:14.018Z,98.80
2019-05-05T22:59:42.745Z,98.80
2019-05-05T23:02:11.413Z,98.70
2019-05-05T23:04:56.526Z,98.70
2019-05-05T23:07:29.435Z,98.70
2019-05-05T23:09:57.925Z,99.00
2019-05-05T23:12:26.413Z,99.10
2019-05-05T23:14:55.066Z,99.20
2019-05-05T23:17:30.933Z,99.30
2019-05-05T23:20:01.053Z,99.90
2019-05-05T23:22:37.450Z,99.60
2019-05-05T23:25:26.719Z,99.60
2019-05-05T23:27:55.156Z,99.90
2019-05-05T23:30:37.830Z,99.80
2019-05-05T23:32:54.807Z,99.90
2019-05-05T23:35:24.004Z,99.90
2019-05-05T23:37:52.650Z,99.90
2019-05-05T23:40:24.673Z,99.90
2019-05-05T23:42:54.231Z,99.70
2019-05-05T23:45:24.748Z,99.90
2019-05-05T23:47:54.452Z,99.90
2019-05-05T23:50:23.861Z,99.90
2019-05-05T23:52:54.584Z,99.90
2019-05-05T23:55:24.009Z,99.90
2019-05-05T23:57:54.806Z,99.90
